sensor_id;sensor_type;location;lat;lon;timestamp;P1;durP1;ratioP1;P2;durP2;ratioP2
14520;SDS011;7347;50.844;4.490;2023-02-15T08:48:34;19.03;;;10.13;;
14520;SDS011;7347;50.844;4.490;2023-02-15T08:51:04;23.20;;;10.07;;
14520;SDS011;7347;50.844;4.490;2023-02-15T08:53:32;24.60;;;9.83;;
14520;SDS011;7347;50.844;4.490;2023-02-15T08:55:59;19.73;;;10.33;;
14520;SDS011;7347;50.844;4.490;2023-02-15T08:58:26;18.67;;;8.93;;
14520;SDS011;7347;50.844;4.490;2023-02-15T09:00:54;21.67;;;10.10;;
14520;SDS011;7347;50.844;4.490;2023-02-15T09:03:20;20.03;;;9.40;;
14520;SDS011;7347;50.844;4.490;2023-02-15T09:05:49;18.77;;;9.30;;
14520;SDS011;7347;50.844;4.490;2023-02-15T09:08:16;19.17;;;8.60;;
14520;SDS011;7347;50.844;4.490;2023-02-15T09:10:43;20.67;;;7.80;;
14520;SDS011;7347;50.844;4.490;2023-02-15T09:13:09;19.10;;;8.63;;
14520;SDS011;7347;50.844;4.490;2023-02-15T09:15:36;19.07;;;8.47;;
14520;SDS011;7347;50.844;4.490;2023-02-15T09:18:03;18.30;;;7.87;;
14520;SDS011;7347;50.844;4.490;2023-02-15T09:20:31;14.67;;;7.73;;
14520;SDS011;7347;50.844;4.490;2023-02-15T09:23:02;21.63;;;8.23;;
14520;SDS011;7347;50.844;4.490;2023-02-15T09:25:29;16.07;;;6.87;;
14520;SDS011;7347;50.844;4.490;2023-02-15T09:27:55;19.60;;;8.60;;
14520;SDS011;7347;50.844;4.490;2023-02-15T09:30:22;17.60;;;7.67;;
14520;SDS011;7347;50.844;4.490;2023-02-15T09:32:49;15.97;;;7.17;;
14520;SDS011;7347;50.844;4.490;2023-02-15T09:35:16;15.80;;;6.90;;
14520;SDS011;7347;50.844;4.490;2023-02-15T09:37:43;15.27;;;6.97;;
14520;SDS011;7347;50.844;4.490;2023-02-15T09:40:12;16.73;;;7.40;;
14520;SDS011;7347;50.844;4.490;2023-02-15T09:42:52;14.57;;;6.43;;
14520;SDS011;7347;50.844;4.490;2023-02-15T09:45:51;15.17;;;6.90;;
14520;SDS011;7347;50.844;4.490;2023-02-15T09:48:40;18.37;;;6.93;;
14520;SDS011;7347;50.844;4.490;2023-02-15T09:54:24;15.03;;;5.73;;
14520;SDS011;7347;50.844;4.490;2023-02-15T09:57:04;14.27;;;6.23;;
14520;SDS011;7347;50.844;4.490;2023-02-15T09:59:40;15.53;;;6.23;;
14520;SDS011;7347;50.844;4.490;2023-02-15T10:02:20;12.70;;;6.10;;
14520;SDS011;7347;50.844;4.490;2023-02-15T10:05:00;17.77;;;6.10;;
14520;SDS011;7347;50.844;4.490;2023-02-15T10:07:45;17.10;;;7.20;;
14520;SDS011;7347;50.844;4.490;2023-02-15T10:10:32;14.70;;;6.00;;
14520;SDS011;7347;50.844;4.490;2023-02-15T10:13:12;16.97;;;6.80;;
14520;SDS011;7347;50.844;4.490;2023-02-15T10:15:53;13.17;;;5.53;;
14520;SDS011;7347;50.844;4.490;2023-02-15T10:18:42;18.53;;;6.97;;
14520;SDS011;7347;50.844;4.490;2023-02-15T10:21:23;18.37;;;7.27;;
14520;SDS011;7347;50.844;4.490;2023-02-15T10:24:18;14.10;;;6.30;;
14520;SDS011;7347;50.844;4.490;2023-02-15T10:26:55;17.23;;;6.90;;
14520;SDS011;7347;50.844;4.490;2023-02-15T10:29:29;15.23;;;6.33;;
14520;SDS011;7347;50.844;4.490;2023-02-15T10:32:04;15.93;;;6.87;;
14520;SDS011;7347;50.844;4.490;2023-02-15T10:34:42;18.90;;;7.13;;
14520;SDS011;7347;50.844;4.490;2023-02-15T10:37:23;17.40;;;7.07;;
14520;SDS011;7347;50.844;4.490;2023-02-15T10:40:00;17.40;;;6.53;;
14520;SDS011;7347;50.844;4.490;2023-02-15T10:42:36;17.57;;;6.63;;
14520;SDS011;7347;50.844;4.490;2023-02-15T10:45:23;15.37;;;5.93;;
14520;SDS011;7347;50.844;4.490;2023-02-15T10:47:59;15.23;;;6.87;;
14520;SDS011;7347;50.844;4.490;2023-02-15T10:50:44;17.50;;;7.10;;
14520;SDS011;7347;50.844;4.490;2023-02-15T10:53:24;21.27;;;7.53;;
14520;SDS011;7347;50.844;4.490;2023-02-15T10:56:03;17.20;;;6.60;;
14520;SDS011;7347;50.844;4.490;2023-02-15T10:58:48;17.03;;;7.50;;
14520;SDS011;7347;50.844;4.490;2023-02-15T11:01:27;17.00;;;6.17;;
14520;SDS011;7347;50.844;4.490;2023-02-15T11:04:08;17.50;;;6.93;;
14520;SDS011;7347;50.844;4.490;2023-02-15T11:06:47;15.07;;;6.40;;
14520;SDS011;7347;50.844;4.490;2023-02-15T11:09:17;15.00;;;5.97;;
14520;SDS011;7347;50.844;4.490;2023-02-15T11:11:47;16.30;;;6.50;;
14520;SDS011;7347;50.844;4.490;2023-02-15T11:14:17;19.50;;;6.63;;
14520;SDS011;7347;50.844;4.490;2023-02-15T11:16:52;16.23;;;6.67;;
14520;SDS011;7347;50.844;4.490;2023-02-15T11:19:26;19.10;;;6.10;;
14520;SDS011;7347;50.844;4.490;2023-02-15T11:21:59;18.77;;;7.43;;
14520;SDS011;7347;50.844;4.490;2023-02-15T11:24:29;17.47;;;6.50;;
14520;SDS011;7347;50.844;4.490;2023-02-15T11:27:00;20.23;;;6.87;;
14520;SDS011;7347;50.844;4.490;2023-02-15T11:29:32;19.97;;;7.13;;
14520;SDS011;7347;50.844;4.490;2023-02-15T11:32:11;17.97;;;7.07;;
14520;SDS011;7347;50.844;4.490;2023-02-15T11:34:47;16.33;;;6.00;;
14520;SDS011;7347;50.844;4.490;2023-02-15T11:37:18;14.97;;;6.80;;
14520;SDS011;7347;50.844;4.490;2023-02-15T11:39:50;20.17;;;6.40;;
14520;SDS011;7347;50.844;4.490;2023-02-15T11:42:20;16.70;;;7.17;;
14520;SDS011;7347;50.844;4.490;2023-02-15T11:44:53;18.70;;;6.77;;
14520;SDS011;7347;50.844;4.490;2023-02-15T11:47:26;17.87;;;7.30;;
14520;SDS011;7347;50.844;4.490;2023-02-15T11:49:53;17.03;;;6.50;;
14520;SDS011;7347;50.844;4.490;2023-02-15T11:52:20;15.20;;;7.00;;
14520;SDS011;7347;50.844;4.490;2023-02-15T11:54:48;16.17;;;6.63;;
14520;SDS011;7347;50.844;4.490;2023-02-15T11:57:17;17.53;;;7.07;;
14520;SDS011;7347;50.844;4.490;2023-02-15T11:59:50;15.37;;;6.73;;
14520;SDS011;7347;50.844;4.490;2023-02-15T12:02:22;17.90;;;6.67;;
14520;SDS011;7347;50.844;4.490;2023-02-15T12:04:54;17.80;;;7.20;;
14520;SDS011;7347;50.844;4.490;2023-02-15T12:07:23;18.70;;;7.40;;
14520;SDS011;7347;50.844;4.490;2023-02-15T12:09:55;20.03;;;7.27;;
14520;SDS011;7347;50.844;4.490;2023-02-15T12:12:30;17.20;;;6.70;;
14520;SDS011;7347;50.844;4.490;2023-02-15T12:14:58;17.50;;;8.30;;
14520;SDS011;7347;50.844;4.490;2023-02-15T12:17:26;20.73;;;7.77;;
14520;SDS011;7347;50.844;4.490;2023-02-15T12:19:57;20.27;;;7.03;;
14520;SDS011;7347;50.844;4.490;2023-02-15T12:22:27;16.47;;;7.87;;
14520;SDS011;7347;50.844;4.490;2023-02-15T12:24:56;15.80;;;7.63;;
14520;SDS011;7347;50.844;4.490;2023-02-15T12:27:26;19.77;;;6.80;;
14520;SDS011;7347;50.844;4.490;2023-02-15T12:29:55;15.13;;;7.63;;
14520;SDS011;7347;50.844;4.490;2023-02-15T12:32:26;19.37;;;8.23;;
14520;SDS011;7347;50.844;4.490;2023-02-15T12:34:59;20.63;;;7.53;;
14520;SDS011;7347;50.844;4.490;2023-02-15T12:37:33;19.97;;;7.63;;
14520;SDS011;7347;50.844;4.490;2023-02-15T12:40:02;21.90;;;8.37;;
14520;SDS011;7347;50.844;4.490;2023-02-15T12:42:45;16.13;;;6.80;;
14520;SDS011;7347;50.844;4.490;2023-02-15T12:45:22;16.97;;;7.23;;
14520;SDS011;7347;50.844;4.490;2023-02-15T12:48:13;16.27;;;7.30;;
14520;SDS011;7347;50.844;4.490;2023-02-15T12:50:43;16.50;;;7.77;;
14520;SDS011;7347;50.844;4.490;2023-02-15T12:53:13;21.80;;;8.63;;
14520;SDS011;7347;50.844;4.490;2023-02-15T12:55:51;18.93;;;8.13;;
14520;SDS011;7347;50.844;4.490;2023-02-15T12:58:20;15.93;;;7.23;;
14520;SDS011;7347;50.844;4.490;2023-02-15T13:00:57;21.03;;;7.60;;
14520;SDS011;7347;50.844;4.490;2023-02-15T13:03:29;18.70;;;7.90;;
14520;SDS011;7347;50.844;4.490;2023-02-15T13:05:58;18.13;;;7.60;;
14520;SDS011;7347;50.844;4.490;2023-02-15T13:08:27;19.97;;;7.77;;
14520;SDS011;7347;50.844;4.490;2023-02-15T13:10:56;17.90;;;7.53;;
14520;SDS011;7347;50.844;4.490;2023-02-15T13:13:26;19.13;;;7.33;;
14520;SDS011;7347;50.844;4.490;2023-02-15T13:15:55;16.10;;;7.17;;
14520;SDS011;7347;50.844;4.490;2023-02-15T13:18:28;17.30;;;7.20;;
14520;SDS011;7347;50.844;4.490;2023-02-15T13:20:59;19.00;;;7.80;;
14520;SDS011;7347;50.844;4.490;2023-02-15T13:23:35;17.50;;;7.43;;
14520;SDS011;7347;50.844;4.490;2023-02-15T13:26:04;20.43;;;7.37;;
14520;SDS011;7347;50.844;4.490;2023-02-15T13:28:37;18.37;;;7.23;;
14520;SDS011;7347;50.844;4.490;2023-02-15T13:31:11;17.67;;;8.10;;
14520;SDS011;7347;50.844;4.490;2023-02-15T13:33:41;19.77;;;7.97;;
14520;SDS011;7347;50.844;4.490;2023-02-15T13:36:14;19.20;;;8.00;;
14520;SDS011;7347;50.844;4.490;2023-02-15T13:38:52;17.50;;;7.73;;
14520;SDS011;7347;50.844;4.490;2023-02-15T13:41:27;19.40;;;7.87;;
14520;SDS011;7347;50.844;4.490;2023-02-15T13:44:00;18.20;;;7.87;;
14520;SDS011;7347;50.844;4.490;2023-02-15T13:46:42;15.67;;;7.80;;
14520;SDS011;7347;50.844;4.490;2023-02-15T13:49:18;18.67;;;7.93;;
14520;SDS011;7347;50.844;4.490;2023-02-15T13:51:58;18.27;;;7.87;;
14520;SDS011;7347;50.844;4.490;2023-02-15T13:54:43;20.17;;;8.60;;
14520;SDS011;7347;50.844;4.490;2023-02-15T13:57:41;16.70;;;8.00;;
14520;SDS011;7347;50.844;4.490;2023-02-15T14:00:21;19.83;;;8.60;;
14520;SDS011;7347;50.844;4.490;2023-02-15T14:02:59;19.30;;;8.13;;
14520;SDS011;7347;50.844;4.490;2023-02-15T14:05:49;17.63;;;7.70;;
14520;SDS011;7347;50.844;4.490;2023-02-15T14:08:40;19.63;;;8.30;;
14520;SDS011;7347;50.844;4.490;2023-02-15T14:11:18;22.47;;;9.17;;
14520;SDS011;7347;50.844;4.490;2023-02-15T14:13:58;23.27;;;8.13;;
14520;SDS011;7347;50.844;4.490;2023-02-15T14:16:48;20.60;;;8.83;;
14520;SDS011;7347;50.844;4.490;2023-02-15T14:19:25;20.17;;;9.10;;
14520;SDS011;7347;50.844;4.490;2023-02-15T14:21:57;22.83;;;8.70;;
14520;SDS011;7347;50.844;4.490;2023-02-15T14:24:33;24.80;;;9.20;;
14520;SDS011;7347;50.844;4.490;2023-02-15T14:27:06;18.23;;;8.43;;
14520;SDS011;7347;50.844;4.490;2023-02-15T14:29:43;19.43;;;9.00;;
14520;SDS011;7347;50.844;4.490;2023-02-15T14:32:18;21.43;;;9.00;;
14520;SDS011;7347;50.844;4.490;2023-02-15T14:34:52;22.23;;;9.17;;
14520;SDS011;7347;50.844;4.490;2023-02-15T14:37:22;20.67;;;8.90;;
14520;SDS011;7347;50.844;4.490;2023-02-15T14:40:02;20.37;;;8.20;;
14520;SDS011;7347;50.844;4.490;2023-02-15T14:42:52;23.73;;;9.20;;
14520;SDS011;7347;50.844;4.490;2023-02-15T14:45:24;24.40;;;8.70;;
14520;SDS011;7347;50.844;4.490;2023-02-15T14:47:57;19.30;;;8.43;;
14520;SDS011;7347;50.844;4.490;2023-02-15T14:50:41;21.00;;;9.03;;
14520;SDS011;7347;50.844;4.490;2023-02-15T14:53:23;21.53;;;8.60;;
14520;SDS011;7347;50.844;4.490;2023-02-15T14:56:18;20.73;;;8.43;;
14520;SDS011;7347;50.844;4.490;2023-02-15T14:58:57;21.63;;;8.23;;
14520;SDS011;7347;50.844;4.490;2023-02-15T15:01:52;20.03;;;8.27;;
14520;SDS011;7347;50.844;4.490;2023-02-15T15:04:25;20.23;;;8.53;;
14520;SDS011;7347;50.844;4.490;2023-02-15T15:07:03;21.97;;;8.23;;
14520;SDS011;7347;50.844;4.490;2023-02-15T15:09:35;18.93;;;8.57;;
14520;SDS011;7347;50.844;4.490;2023-02-15T15:12:35;22.40;;;8.63;;
14520;SDS011;7347;50.844;4.490;2023-02-15T15:15:06;23.00;;;8.73;;
14520;SDS011;7347;50.844;4.490;2023-02-15T15:20:37;21.03;;;9.50;;
14520;SDS011;7347;50.844;4.490;2023-02-15T15:26:22;20.83;;;9.20;;
14520;SDS011;7347;50.844;4.490;2023-02-15T15:28:57;19.87;;;8.90;;
14520;SDS011;7347;50.844;4.490;2023-02-15T15:31:27;22.67;;;8.97;;
14520;SDS011;7347;50.844;4.490;2023-02-15T15:37:13;23.40;;;10.00;;
14520;SDS011;7347;50.844;4.490;2023-02-15T15:43:15;19.73;;;9.03;;
14520;SDS011;7347;50.844;4.490;2023-02-15T15:46:04;18.93;;;9.43;;
14520;SDS011;7347;50.844;4.490;2023-02-15T15:48:49;21.50;;;9.03;;
14520;SDS011;7347;50.844;4.490;2023-02-15T15:51:18;20.60;;;9.10;;
14520;SDS011;7347;50.844;4.490;2023-02-15T15:53:46;25.80;;;10.30;;
14520;SDS011;7347;50.844;4.490;2023-02-15T15:56:18;22.03;;;9.77;;
14520;SDS011;7347;50.844;4.490;2023-02-15T15:58:48;22.03;;;9.67;;
14520;SDS011;7347;50.844;4.490;2023-02-15T16:01:25;25.80;;;9.83;;
14520;SDS011;7347;50.844;4.490;2023-02-15T16:03:53;23.10;;;9.60;;
14520;SDS011;7347;50.844;4.490;2023-02-15T16:06:29;22.57;;;8.97;;
14520;SDS011;7347;50.844;4.490;2023-02-15T16:08:57;22.30;;;9.87;;
14520;SDS011;7347;50.844;4.490;2023-02-15T16:11:36;23.23;;;10.67;;
14520;SDS011;7347;50.844;4.490;2023-02-15T16:14:08;26.70;;;10.83;;
14520;SDS011;7347;50.844;4.490;2023-02-15T16:16:39;22.17;;;10.40;;
14520;SDS011;7347;50.844;4.490;2023-02-15T16:19:14;25.13;;;10.03;;
14520;SDS011;7347;50.844;4.490;2023-02-15T16:21:46;26.23;;;10.80;;
14520;SDS011;7347;50.844;4.490;2023-02-15T16:24:18;22.47;;;9.90;;
14520;SDS011;7347;50.844;4.490;2023-02-15T16:26:57;22.60;;;10.23;;
14520;SDS011;7347;50.844;4.490;2023-02-15T16:29:47;24.40;;;10.37;;
14520;SDS011;7347;50.844;4.490;2023-02-15T16:32:20;24.30;;;10.37;;
14520;SDS011;7347;50.844;4.490;2023-02-15T16:34:51;23.57;;;9.97;;
14520;SDS011;7347;50.844;4.490;2023-02-15T16:37:20;23.60;;;9.87;;
14520;SDS011;7347;50.844;4.490;2023-02-15T16:39:50;23.50;;;10.33;;
14520;SDS011;7347;50.844;4.490;2023-02-15T16:42:17;23.43;;;10.10;;
14520;SDS011;7347;50.844;4.490;2023-02-15T16:44:45;19.93;;;9.03;;
14520;SDS011;7347;50.844;4.490;2023-02-15T16:47:15;20.57;;;10.17;;
14520;SDS011;7347;50.844;4.490;2023-02-15T16:49:48;24.40;;;10.43;;
14520;SDS011;7347;50.844;4.490;2023-02-15T16:52:19;23.97;;;10.90;;
14520;SDS011;7347;50.844;4.490;2023-02-15T16:54:49;21.97;;;9.97;;
14520;SDS011;7347;50.844;4.490;2023-02-15T16:57:20;25.23;;;10.33;;
14520;SDS011;7347;50.844;4.490;2023-02-15T16:59:49;24.60;;;10.30;;
14520;SDS011;7347;50.844;4.490;2023-02-15T17:02:20;25.00;;;10.20;;
14520;SDS011;7347;50.844;4.490;2023-02-15T17:05:05;22.33;;;9.90;;
14520;SDS011;7347;50.844;4.490;2023-02-15T17:07:41;20.63;;;9.53;;
14520;SDS011;7347;50.844;4.490;2023-02-15T17:10:27;24.93;;;10.50;;
14520;SDS011;7347;50.844;4.490;2023-02-15T17:13:00;22.47;;;10.53;;
14520;SDS011;7347;50.844;4.490;2023-02-15T17:15:29;24.33;;;11.23;;
14520;SDS011;7347;50.844;4.490;2023-02-15T17:17:59;28.87;;;11.70;;
14520;SDS011;7347;50.844;4.490;2023-02-15T17:20:30;25.00;;;10.43;;
14520;SDS011;7347;50.844;4.490;2023-02-15T17:22:58;27.33;;;11.53;;
14520;SDS011;7347;50.844;4.490;2023-02-15T17:25:28;23.83;;;12.53;;
14520;SDS011;7347;50.844;4.490;2023-02-15T17:28:01;28.30;;;11.30;;
14520;SDS011;7347;50.844;4.490;2023-02-15T17:30:29;30.37;;;12.37;;
14520;SDS011;7347;50.844;4.490;2023-02-15T17:32:58;27.40;;;11.47;;
14520;SDS011;7347;50.844;4.490;2023-02-15T17:35:26;28.97;;;11.73;;
14520;SDS011;7347;50.844;4.490;2023-02-15T17:38:03;29.00;;;12.47;;
14520;SDS011;7347;50.844;4.490;2023-02-15T17:40:32;26.20;;;12.27;;
14520;SDS011;7347;50.844;4.490;2023-02-15T17:43:00;30.47;;;12.33;;
14520;SDS011;7347;50.844;4.490;2023-02-15T17:45:30;25.00;;;11.37;;
14520;SDS011;7347;50.844;4.490;2023-02-15T17:48:00;26.80;;;12.00;;
14520;SDS011;7347;50.844;4.490;2023-02-15T17:50:29;28.00;;;11.43;;
14520;SDS011;7347;50.844;4.490;2023-02-15T17:52:57;23.43;;;11.53;;
14520;SDS011;7347;50.844;4.490;2023-02-15T17:55:27;25.97;;;11.20;;
14520;SDS011;7347;50.844;4.490;2023-02-15T17:57:59;28.03;;;11.77;;
14520;SDS011;7347;50.844;4.490;2023-02-15T18:00:26;27.37;;;10.87;;
14520;SDS011;7347;50.844;4.490;2023-02-15T18:03:11;29.07;;;11.17;;
14520;SDS011;7347;50.844;4.490;2023-02-15T18:05:56;27.67;;;11.13;;
14520;SDS011;7347;50.844;4.490;2023-02-15T18:08:41;26.23;;;10.73;;
14520;SDS011;7347;50.844;4.490;2023-02-15T18:11:27;25.87;;;10.93;;
14520;SDS011;7347;50.844;4.490;2023-02-15T18:14:04;26.47;;;11.67;;
14520;SDS011;7347;50.844;4.490;2023-02-15T18:16:33;22.90;;;10.03;;
14520;SDS011;7347;50.844;4.490;2023-02-15T18:19:02;25.20;;;10.73;;
14520;SDS011;7347;50.844;4.490;2023-02-15T18:21:30;24.93;;;11.10;;
14520;SDS011;7347;50.844;4.490;2023-02-15T18:23:57;27.97;;;11.33;;
14520;SDS011;7347;50.844;4.490;2023-02-15T18:26:24;31.53;;;11.43;;
14520;SDS011;7347;50.844;4.490;2023-02-15T18:28:53;24.83;;;10.33;;
14520;SDS011;7347;50.844;4.490;2023-02-15T18:31:20;24.87;;;11.03;;
14520;SDS011;7347;50.844;4.490;2023-02-15T18:33:49;28.93;;;11.23;;
14520;SDS011;7347;50.844;4.490;2023-02-15T18:36:19;24.53;;;11.17;;
14520;SDS011;7347;50.844;4.490;2023-02-15T18:38:48;28.60;;;11.77;;
14520;SDS011;7347;50.844;4.490;2023-02-15T18:41:17;24.90;;;10.73;;
14520;SDS011;7347;50.844;4.490;2023-02-15T18:43:46;23.07;;;10.30;;
14520;SDS011;7347;50.844;4.490;2023-02-15T18:46:15;26.27;;;12.07;;
14520;SDS011;7347;50.844;4.490;2023-02-15T18:48:42;25.10;;;10.83;;
14520;SDS011;7347;50.844;4.490;2023-02-15T18:51:13;26.13;;;12.20;;
14520;SDS011;7347;50.844;4.490;2023-02-15T18:53:44;24.47;;;11.33;;
14520;SDS011;7347;50.844;4.490;2023-02-15T18:56:13;24.13;;;12.20;;
14520;SDS011;7347;50.844;4.490;2023-02-15T18:58:42;36.13;;;12.23;;
14520;SDS011;7347;50.844;4.490;2023-02-15T19:01:12;27.83;;;12.07;;
14520;SDS011;7347;50.844;4.490;2023-02-15T19:03:43;27.33;;;13.00;;
14520;SDS011;7347;50.844;4.490;2023-02-15T19:06:11;27.50;;;12.10;;
14520;SDS011;7347;50.844;4.490;2023-02-15T19:08:40;25.70;;;10.97;;
14520;SDS011;7347;50.844;4.490;2023-02-15T19:11:13;26.30;;;11.03;;
14520;SDS011;7347;50.844;4.490;2023-02-15T19:13:43;22.67;;;10.43;;
14520;SDS011;7347;50.844;4.490;2023-02-15T19:16:13;26.70;;;11.10;;
14520;SDS011;7347;50.844;4.490;2023-02-15T19:18:52;28.37;;;11.70;;
14520;SDS011;7347;50.844;4.490;2023-02-15T19:21:19;27.83;;;11.93;;
14520;SDS011;7347;50.844;4.490;2023-02-15T19:23:55;22.73;;;10.67;;
14520;SDS011;7347;50.844;4.490;2023-02-15T19:26:24;23.13;;;10.63;;
14520;SDS011;7347;50.844;4.490;2023-02-15T19:28:55;25.70;;;10.97;;
14520;SDS011;7347;50.844;4.490;2023-02-15T19:31:23;25.57;;;11.37;;
14520;SDS011;7347;50.844;4.490;2023-02-15T19:33:49;26.07;;;11.03;;
14520;SDS011;7347;50.844;4.490;2023-02-15T19:36:18;22.67;;;10.13;;
14520;SDS011;7347;50.844;4.490;2023-02-15T19:38:47;28.47;;;11.43;;
14520;SDS011;7347;50.844;4.490;2023-02-15T19:41:16;24.83;;;10.23;;
14520;SDS011;7347;50.844;4.490;2023-02-15T19:43:46;21.50;;;10.43;;
14520;SDS011;7347;50.844;4.490;2023-02-15T19:46:19;22.97;;;9.40;;
14520;SDS011;7347;50.844;4.490;2023-02-15T19:48:46;26.23;;;10.73;;
14520;SDS011;7347;50.844;4.490;2023-02-15T19:51:15;21.90;;;10.33;;
14520;SDS011;7347;50.844;4.490;2023-02-15T19:53:42;23.50;;;9.93;;
14520;SDS011;7347;50.844;4.490;2023-02-15T19:56:10;20.40;;;10.13;;
14520;SDS011;7347;50.844;4.490;2023-02-15T19:58:38;25.33;;;11.00;;
14520;SDS011;7347;50.844;4.490;2023-02-15T20:01:05;22.03;;;9.10;;
14520;SDS011;7347;50.844;4.490;2023-02-15T20:03:31;21.30;;;9.87;;
14520;SDS011;7347;50.844;4.490;2023-02-15T20:05:59;28.57;;;11.50;;
14520;SDS011;7347;50.844;4.490;2023-02-15T20:08:27;20.93;;;9.70;;
14520;SDS011;7347;50.844;4.490;2023-02-15T20:10:55;23.67;;;10.90;;
14520;SDS011;7347;50.844;4.490;2023-02-15T20:13:23;29.20;;;11.03;;
14520;SDS011;7347;50.844;4.490;2023-02-15T20:15:50;26.50;;;10.53;;
14520;SDS011;7347;50.844;4.490;2023-02-15T20:18:17;21.87;;;10.70;;
14520;SDS011;7347;50.844;4.490;2023-02-15T20:20:44;25.97;;;10.47;;
14520;SDS011;7347;50.844;4.490;2023-02-15T20:23:15;28.17;;;12.03;;
14520;SDS011;7347;50.844;4.490;2023-02-15T20:25:45;28.10;;;12.00;;
14520;SDS011;7347;50.844;4.490;2023-02-15T20:28:14;23.33;;;10.77;;
14520;SDS011;7347;50.844;4.490;2023-02-15T20:30:42;24.03;;;10.40;;
14520;SDS011;7347;50.844;4.490;2023-02-15T20:33:10;23.63;;;11.20;;
14520;SDS011;7347;50.844;4.490;2023-02-15T20:35:37;21.90;;;10.13;;
14520;SDS011;7347;50.844;4.490;2023-02-15T20:38:04;24.17;;;10.10;;
14520;SDS011;7347;50.844;4.490;2023-02-15T20:40:32;25.43;;;11.27;;
14520;SDS011;7347;50.844;4.490;2023-02-15T20:43:01;27.27;;;10.23;;
14520;SDS011;7347;50.844;4.490;2023-02-15T20:45:29;23.10;;;10.23;;
14520;SDS011;7347;50.844;4.490;2023-02-15T20:47:57;22.83;;;10.17;;
14520;SDS011;7347;50.844;4.490;2023-02-15T20:50:26;23.67;;;11.30;;
14520;SDS011;7347;50.844;4.490;2023-02-15T20:52:55;23.90;;;9.97;;
14520;SDS011;7347;50.844;4.490;2023-02-15T20:55:25;20.63;;;10.13;;
14520;SDS011;7347;50.844;4.490;2023-02-15T20:57:54;24.63;;;10.67;;
14520;SDS011;7347;50.844;4.490;2023-02-15T21:00:24;20.53;;;9.57;;
14520;SDS011;7347;50.844;4.490;2023-02-15T21:02:53;23.73;;;10.50;;
14520;SDS011;7347;50.844;4.490;2023-02-15T21:05:22;22.80;;;10.67;;
14520;SDS011;7347;50.844;4.490;2023-02-15T21:07:51;27.27;;;12.17;;
14520;SDS011;7347;50.844;4.490;2023-02-15T21:10:20;25.00;;;10.63;;
14520;SDS011;7347;50.844;4.490;2023-02-15T21:12:48;29.17;;;11.30;;
14520;SDS011;7347;50.844;4.490;2023-02-15T21:15:28;22.70;;;10.97;;
14520;SDS011;7347;50.844;4.490;2023-02-15T21:17:57;24.60;;;10.63;;
14520;SDS011;7347;50.844;4.490;2023-02-15T21:20:25;24.73;;;10.57;;
14520;SDS011;7347;50.844;4.490;2023-02-15T21:22:54;23.70;;;10.30;;
14520;SDS011;7347;50.844;4.490;2023-02-15T21:25:24;21.77;;;10.60;;
14520;SDS011;7347;50.844;4.490;2023-02-15T21:27:53;22.97;;;10.20;;
14520;SDS011;7347;50.844;4.490;2023-02-15T21:30:20;26.17;;;10.73;;
14520;SDS011;7347;50.844;4.490;2023-02-15T21:32:50;26.60;;;11.60;;
14520;SDS011;7347;50.844;4.490;2023-02-15T21:35:17;22.20;;;10.97;;
14520;SDS011;7347;50.844;4.490;2023-02-15T21:37:45;26.00;;;11.27;;
14520;SDS011;7347;50.844;4.490;2023-02-15T21:40:17;23.53;;;10.70;;
14520;SDS011;7347;50.844;4.490;2023-02-15T21:42:45;28.67;;;11.40;;
14520;SDS011;7347;50.844;4.490;2023-02-15T21:45:30;28.37;;;11.50;;
14520;SDS011;7347;50.844;4.490;2023-02-15T21:48:15;24.93;;;11.23;;
14520;SDS011;7347;50.844;4.490;2023-02-15T21:50:42;24.77;;;11.23;;
14520;SDS011;7347;50.844;4.490;2023-02-15T21:53:27;28.43;;;11.27;;
14520;SDS011;7347;50.844;4.490;2023-02-15T21:55:57;24.50;;;10.40;;
14520;SDS011;7347;50.844;4.490;2023-02-15T21:58:26;29.33;;;11.53;;
14520;SDS011;7347;50.844;4.490;2023-02-15T22:00:54;28.87;;;10.97;;
14520;SDS011;7347;50.844;4.490;2023-02-15T22:03:23;29.07;;;11.80;;
14520;SDS011;7347;50.844;4.490;2023-02-15T22:05:52;23.63;;;11.03;;
14520;SDS011;7347;50.844;4.490;2023-02-15T22:08:19;25.50;;;11.50;;
14520;SDS011;7347;50.844;4.490;2023-02-15T22:10:46;26.17;;;11.03;;
14520;SDS011;7347;50.844;4.490;2023-02-15T22:13:13;24.70;;;11.50;;
14520;SDS011;7347;50.844;4.490;2023-02-15T22:15:43;25.67;;;11.13;;
14520;SDS011;7347;50.844;4.490;2023-02-15T22:18:17;24.70;;;11.33;;
14520;SDS011;7347;50.844;4.490;2023-02-15T22:20:48;26.47;;;11.30;;
14520;SDS011;7347;50.844;4.490;2023-02-15T22:23:14;26.83;;;11.63;;
14520;SDS011;7347;50.844;4.490;2023-02-15T22:25:41;21.90;;;10.80;;
14520;SDS011;7347;50.844;4.490;2023-02-15T22:28:12;25.33;;;10.80;;
14520;SDS011;7347;50.844;4.490;2023-02-15T22:30:41;28.43;;;10.90;;
14520;SDS011;7347;50.844;4.490;2023-02-15T22:33:15;25.77;;;11.70;;
14520;SDS011;7347;50.844;4.490;2023-02-15T22:35:51;22.33;;;9.73;;
14520;SDS011;7347;50.844;4.490;2023-02-15T22:38:18;25.10;;;10.73;;
14520;SDS011;7347;50.844;4.490;2023-02-15T22:40:46;22.33;;;10.40;;
14520;SDS011;7347;50.844;4.490;2023-02-15T22:43:19;25.73;;;11.10;;
14520;SDS011;7347;50.844;4.490;2023-02-15T22:45:49;30.10;;;12.17;;
14520;SDS011;7347;50.844;4.490;2023-02-15T22:48:17;24.57;;;10.17;;
14520;SDS011;7347;50.844;4.490;2023-02-15T22:50:47;22.20;;;10.17;;
14520;SDS011;7347;50.844;4.490;2023-02-15T22:53:15;28.03;;;11.53;;
14520;SDS011;7347;50.844;4.490;2023-02-15T22:55:42;21.27;;;9.90;;
14520;SDS011;7347;50.844;4.490;2023-02-15T22:58:11;26.57;;;10.90;;
